Time;durP1;ratioP1;P1;durP2;ratioP2;P2;SDS_P1;SDS_P2;PMS_P1;PMS_P2;Temp;Humidity;BMP_temperature;BMP_pressure;BME280_temperature;BME280_humidity;BME280_pressure;Samples;Min_cycle;Max_cycle;Signal;HPM_P1;HPM_P2
2021/11/10 00:02:23;;;;;;;47.80;25.02;;;;;;;4.21;66.89;101661.19;5131892;27;20043;-71
2021/11/10 00:04:49;;;;;;;53.95;26.58;;;;;;;4.20;67.07;101655.13;5127470;27;20047;-71
2021/11/10 00:07:16;;;;;;;50.78;26.92;;;;;;;4.21;66.90;101650.72;5128372;27;20541;-74
2021/11/10 00:09:43;;;;;;;48.35;24.40;;;;;;;4.16;66.80;101652.59;5128179;27;20054;-73
2021/11/10 00:12:11;;;;;;;37.75;20.63;;;;;;;4.10;66.76;101648.38;5128426;27;20070;-72
2021/11/10 00:14:39;;;;;;;42.20;23.27;;;;;;;4.01;66.83;101645.97;5129023;27;20517;-72
2021/11/10 00:17:07;;;;;;;46.47;25.02;;;;;;;3.95;66.89;101643.50;5127927;27;20049;-75
2021/11/10 00:19:34;;;;;;;45.38;25.63;;;;;;;3.93;66.83;101621.78;5128256;27;20048;-71
2021/11/10 00:22:00;;;;;;;42.92;24.23;;;;;;;3.86;66.76;101621.03;5110443;27;20089;-72
2021/11/10 00:24:27;;;;;;;48.63;25.17;;;;;;;3.83;67.08;101621.09;5128569;27;20058;-73
2021/11/10 00:26:54;;;;;;;41.63;22.85;;;;;;;3.82;67.00;101617.63;5129046;27;20130;-73
2021/11/10 00:29:22;;;;;;;40.90;22.13;;;;;;;3.82;67.17;101619.41;5127040;27;20043;-73
2021/11/10 00:31:50;;;;;;;42.25;22.40;;;;;;;3.89;67.15;101621.00;5128541;27;20039;-73
2021/11/10 00:34:17;;;;;;;49.47;24.13;;;;;;;3.94;67.12;101615.63;5128998;27;20051;-72
2021/11/10 00:36:45;;;;;;;48.58;25.77;;;;;;;3.96;67.45;101616.47;5130187;27;20047;-73
2021/11/10 00:39:12;;;;;;;53.92;26.42;;;;;;;4.01;67.25;101620.69;5128051;27;20085;-74
2021/11/10 00:41:39;;;;;;;50.45;24.95;;;;;;;4.08;67.20;101621.41;5129529;27;20055;-73
2021/11/10 00:44:06;;;;;;;54.15;24.88;;;;;;;4.11;67.21;101617.88;5129032;27;20058;-73
2021/11/10 00:46:33;;;;;;;51.80;25.77;;;;;;;4.17;67.39;101626.41;5129171;27;20716;-73
2021/11/10 00:49:02;;;;;;;53.72;27.55;;;;;;;4.19;67.03;101629.84;5129342;27;20066;-73
2021/11/10 00:51:29;;;;;;;49.35;23.90;;;;;;;4.22;67.16;101628.94;5129572;27;20055;-72
2021/11/10 00:53:57;;;;;;;54.63;27.20;;;;;;;4.24;67.19;101632.38;5128168;27;20042;-73
2021/11/10 00:56:24;;;;;;;61.38;25.95;;;;;;;4.27;67.36;101632.31;5130631;28;20414;-71
2021/11/10 00:58:51;;;;;;;51.03;24.02;;;;;;;4.28;67.19;101635.75;5128910;28;20050;-72
2021/11/10 01:01:18;;;;;;;48.15;24.00;;;;;;;4.30;67.15;101650.50;5133022;28;20051;-72
2021/11/10 01:03:46;;;;;;;47.28;23.85;;;;;;;4.31;67.17;101652.25;5131069;28;20050;-73
2021/11/10 01:06:14;;;;;;;50.85;24.73;;;;;;;4.32;67.12;101646.13;5130415;28;20697;-75
2021/11/10 01:08:41;;;;;;;44.00;23.23;;;;;;;4.33;67.06;101645.22;5135165;28;20142;-72
2021/11/10 01:11:08;;;;;;;39.95;22.20;;;;;;;4.34;67.05;101641.72;5136699;28;20090;-72
2021/11/10 01:13:36;;;;;;;42.50;22.73;;;;;;;4.34;66.78;101633.88;5140899;28;20067;-71
2021/11/10 01:16:03;;;;;;;48.60;23.40;;;;;;;4.34;67.16;101636.47;5135548;28;20051;-72
2021/11/10 01:18:30;;;;;;;47.53;23.15;;;;;;;4.33;66.95;101637.38;5136393;28;20098;-72
2021/11/10 01:20:57;;;;;;;52.78;26.48;;;;;;;4.33;67.13;101645.22;5137568;28;20766;-73
2021/11/10 01:23:27;;;;;;;46.33;24.60;;;;;;;4.33;67.09;101646.97;5140164;28;20111;-72
2021/11/10 01:25:55;;;;;;;50.38;24.58;;;;;;;4.36;67.06;101647.75;5133473;28;20062;-72
2021/11/10 01:28:22;;;;;;;47.97;23.33;;;;;;;4.34;67.18;101644.34;5137582;28;20123;-71
2021/11/10 01:30:49;;;;;;;42.60;22.73;;;;;;;4.35;67.10;101643.41;5129440;28;20051;-73
2021/11/10 01:33:17;;;;;;;48.15;23.92;;;;;;;4.35;67.17;101643.41;5143458;28;20049;-73
2021/11/10 01:35:44;;;;;;;45.85;24.88;;;;;;;4.38;67.12;101645.13;5136048;28;20130;-71
2021/11/10 01:38:12;;;;;;;52.15;25.27;;;;;;;4.39;67.24;101645.09;5131145;28;20486;-73
2021/11/10 01:40:40;;;;;;;44.05;23.98;;;;;;;4.40;67.32;101643.31;5129432;28;20063;-71
2021/11/10 01:43:13;;;;;;;45.90;25.17;;;;;;;4.38;67.22;101640.75;5129273;28;20043;-72
2021/11/10 01:45:40;;;;;;;47.55;24.48;;;;;;;4.38;67.21;101635.50;5129705;28;20479;-72
2021/11/10 01:48:08;;;;;;;53.88;26.85;;;;;;;4.38;67.08;101647.72;5129655;28;20122;-73
2021/11/10 01:50:36;;;;;;;50.00;23.55;;;;;;;4.38;67.11;101643.34;5133277;27;20087;-74
2021/11/10 01:53:03;;;;;;;47.17;26.95;;;;;;;4.37;67.17;101640.78;5133651;27;20047;-73
2021/11/10 01:55:31;;;;;;;49.83;25.17;;;;;;;4.36;67.31;101629.44;5132435;27;20047;-72
2021/11/10 01:57:59;;;;;;;46.83;24.25;;;;;;;4.36;67.16;101626.84;5132118;27;20535;-72
2021/11/10 02:00:28;;;;;;;50.72;23.20;;;;;;;4.36;67.20;101626.84;5132147;27;20130;-73
2021/11/10 02:02:56;;;;;;;56.35;25.67;;;;;;;4.36;67.26;101621.59;5132065;27;20463;-72
2021/11/10 02:05:23;;;;;;;51.28;24.73;;;;;;;4.37;67.33;101615.47;5134903;27;20035;-73
2021/11/10 02:07:51;;;;;;;52.50;24.58;;;;;;;4.36;67.29;101607.69;5140432;27;20043;-73
2021/11/10 02:10:19;;;;;;;44.50;23.48;;;;;;;4.36;67.29;101605.91;5131161;27;20095;-73
2021/11/10 02:12:47;;;;;;;44.90;24.25;;;;;;;4.36;67.20;101611.16;5130149;27;20629;-73
2021/11/10 02:15:17;;;;;;;45.45;23.98;;;;;;;4.37;67.41;101610.22;5131237;27;20491;-75
2021/11/10 02:17:47;;;;;;;46.97;25.13;;;;;;;4.37;67.33;101604.16;5130730;27;20050;-73
2021/11/10 02:20:15;;;;;;;44.63;25.92;;;;;;;4.36;67.28;101608.53;5131078;27;20128;-75
2021/11/10 02:22:44;;;;;;;46.28;23.88;;;;;;;4.37;67.31;101597.16;5095660;27;20051;-72
2021/11/10 02:25:12;;;;;;;46.90;23.88;;;;;;;4.37;67.25;101596.31;5131151;27;20054;-73
2021/11/10 02:27:40;;;;;;;42.90;23.75;;;;;;;4.37;67.36;101588.44;5130931;27;20043;-72
2021/11/10 02:30:10;;;;;;;40.67;21.73;;;;;;;4.36;67.46;101589.38;5131089;27;20043;-73
2021/11/10 02:32:37;;;;;;;47.70;24.08;;;;;;;4.37;67.23;101575.38;5134819;27;20057;-73
2021/11/10 02:35:06;;;;;;;47.33;23.75;;;;;;;4.36;67.38;101564.06;5134534;27;20062;-71
2021/11/10 02:37:34;;;;;;;49.75;22.20;;;;;;;4.37;67.33;101554.44;5131185;27;20050;-73
2021/11/10 02:40:05;;;;;;;43.85;22.75;;;;;;;4.37;67.29;101546.59;5133644;27;20051;-72
2021/11/10 02:42:32;;;;;;;41.47;22.88;;;;;;;4.34;67.30;101552.78;5137404;27;20047;-73
2021/11/10 02:44:59;;;;;;;45.63;24.83;;;;;;;4.30;67.15;101561.59;5132400;27;20043;-73
2021/11/10 02:47:27;;;;;;;40.78;21.63;;;;;;;4.26;67.28;101565.19;5138733;27;20314;-72
2021/11/10 02:49:54;;;;;;;44.92;23.30;;;;;;;4.27;67.11;101572.16;5137803;27;20041;-74
2021/11/10 02:52:22;;;;;;;40.67;21.80;;;;;;;4.25;67.04;101576.56;5144989;27;20083;-72
2021/11/10 02:54:51;;;;;;;46.00;22.17;;;;;;;4.23;67.26;101565.25;5144684;27;20053;-74
2021/11/10 02:57:21;;;;;;;47.15;22.10;;;;;;;4.25;67.24;101571.31;5138633;27;20070;-72
2021/11/10 02:59:48;;;;;;;47.85;24.92;;;;;;;4.24;67.24;101582.66;5134594;27;20043;-71
2021/11/10 03:02:15;;;;;;;50.40;23.48;;;;;;;4.26;67.41;101574.78;5131981;27;20043;-71
2021/11/10 03:04:46;;;;;;;45.95;23.70;;;;;;;4.26;67.29;101580.88;5134244;27;20501;-72
2021/11/10 03:07:14;;;;;;;45.47;21.20;;;;;;;4.27;67.32;101574.75;5135220;27;20058;-72
2021/11/10 03:09:43;;;;;;;48.75;25.98;;;;;;;4.28;67.40;101573.84;5133471;27;20057;-73
2021/11/10 03:12:12;;;;;;;52.53;24.75;;;;;;;4.26;67.33;101565.19;5134794;27;20071;-72
2021/11/10 03:14:42;;;;;;;48.33;23.23;;;;;;;4.27;67.33;101572.16;5132106;27;20455;-73
2021/11/10 03:17:11;;;;;;;56.85;27.52;;;;;;;4.26;67.49;101565.19;5133041;27;20043;-72
2021/11/10 03:19:38;;;;;;;46.55;24.20;;;;;;;4.27;67.43;101566.91;5134381;27;20377;-73
2021/11/10 03:22:07;;;;;;;47.33;23.27;;;;;;;4.29;67.34;101572.09;5135101;27;20049;-73
2021/11/10 03:24:36;;;;;;;48.92;24.98;;;;;;;4.33;67.38;101571.97;5132737;27;20050;-73
2021/11/10 03:27:03;;;;;;;49.05;22.75;;;;;;;4.36;67.43;101571.91;5130180;27;20047;-73
2021/11/10 03:29:32;;;;;;;47.63;23.88;;;;;;;4.39;67.46;101570.97;5128180;27;20054;-73
2021/11/10 03:32:01;;;;;;;48.25;22.92;;;;;;;4.45;67.54;101567.31;5128631;27;20047;-73
2021/11/10 03:34:28;;;;;;;55.63;24.65;;;;;;;4.46;67.55;101571.66;5128700;27;20107;-73
2021/11/10 03:36:55;;;;;;;51.63;24.05;;;;;;;4.51;67.57;101569.78;5129832;27;20040;-72
2021/11/10 03:39:22;;;;;;;47.63;23.27;;;;;;;4.53;67.49;101568.84;5129834;27;20043;-73
2021/11/10 03:41:49;;;;;;;51.50;25.23;;;;;;;4.55;67.57;101567.03;5129389;27;20053;-74
2021/11/10 03:44:17;;;;;;;53.03;24.42;;;;;;;4.57;67.58;101565.28;5129659;27;20212;-74
2021/11/10 03:46:45;;;;;;;50.53;27.45;;;;;;;4.62;67.70;101566.91;5142443;27;20043;-74
2021/11/10 03:49:15;;;;;;;55.85;25.05;;;;;;;4.65;67.56;101556.34;5129534;27;20051;-73
2021/11/10 03:51:43;;;;;;;60.95;26.92;;;;;;;4.66;67.58;101555.44;5129330;27;20131;-74
2021/11/10 03:54:10;;;;;;;47.22;23.40;;;;;;;4.66;67.53;101558.91;5129433;27;20043;-73
2021/11/10 03:56:37;;;;;;;47.60;24.40;;;;;;;4.68;67.49;101567.59;5128059;27;20039;-74
2021/11/10 03:59:04;;;;;;;45.75;24.73;;;;;;;4.71;67.58;101548.31;5132385;27;20047;-74
2021/11/10 04:01:31;;;;;;;56.45;24.42;;;;;;;4.71;67.68;101541.31;5142223;27;20057;-73
2021/11/10 04:03:58;;;;;;;51.58;25.67;;;;;;;4.71;67.56;101538.69;5129128;27;20646;-74
2021/11/10 04:06:26;;;;;;;51.80;25.75;;;;;;;4.74;67.61;101537.78;5129114;27;20043;-76
2021/11/10 04:08:54;;;;;;;53.67;23.83;;;;;;;4.73;67.57;101544.75;5128823;27;20043;-74
2021/11/10 04:11:21;;;;;;;50.50;22.88;;;;;;;4.72;67.63;101537.81;5129437;27;20432;-73
2021/11/10 04:13:49;;;;;;;48.75;23.52;;;;;;;4.73;67.53;101543.91;5127329;27;20047;-72
2021/11/10 04:16:20;;;;;;;46.15;24.15;;;;;;;4.72;67.47;101540.44;5129014;27;20078;-74
2021/11/10 04:18:48;;;;;;;45.67;22.38;;;;;;;4.73;67.44;101529.06;5129234;27;20099;-73
2021/11/10 04:21:16;;;;;;;52.05;22.63;;;;;;;4.73;67.50;101520.34;5127712;27;20043;-72
2021/11/10 04:23:44;;;;;;;49.15;23.55;;;;;;;4.73;67.47;101518.56;5128864;27;20055;-73
2021/11/10 04:26:11;;;;;;;45.05;23.25;;;;;;;4.72;67.50;101516.03;5128517;27;20485;-73
2021/11/10 04:28:38;;;;;;;44.47;22.88;;;;;;;4.74;67.43;101514.22;5135254;27;20045;-72
2021/11/10 04:31:06;;;;;;;49.00;24.80;;;;;;;4.71;67.43;101507.31;5126984;27;20131;-72
2021/11/10 04:33:33;;;;;;;62.40;33.55;;;;;;;4.65;67.36;101507.47;5127311;27;20488;-73
2021/11/10 04:36:00;;;;;;;48.08;24.30;;;;;;;4.59;67.36;101502.41;5129185;27;20043;-73
2021/11/10 04:38:27;;;;;;;50.05;25.08;;;;;;;4.54;67.23;101499.06;5129014;27;20043;-73
2021/11/10 04:40:56;;;;;;;41.05;22.77;;;;;;;4.46;67.12;101483.56;5128966;27;20046;-73
2021/11/10 04:43:23;;;;;;;44.78;22.02;;;;;;;4.39;67.15;101487.25;5128638;27;20122;-72
2021/11/10 04:45:54;;;;;;;38.55;23.42;;;;;;;4.31;67.13;101490.09;5128149;27;20066;-71
2021/11/10 04:48:21;;;;;;;46.53;23.40;;;;;;;4.24;67.10;101493.75;5127277;27;20051;-73
2021/11/10 04:50:48;;;;;;;43.63;22.65;;;;;;;4.18;67.13;101491.31;5134449;27;20042;-73
2021/11/10 04:53:16;;;;;;;40.60;22.67;;;;;;;4.11;67.15;101481.91;5127439;27;20044;-72
2021/11/10 04:55:44;;;;;;;39.95;21.80;;;;;;;4.07;66.97;101485.47;5126575;28;20050;-75
2021/11/10 04:58:12;;;;;;;50.72;24.77;;;;;;;3.99;67.22;101483.06;5127231;28;20404;-73
2021/11/10 05:00:39;;;;;;;50.75;24.45;;;;;;;3.96;67.38;101477.91;5125835;28;20634;-74
2021/11/10 05:03:08;;;;;;;42.42;22.90;;;;;;;3.90;67.22;101475.47;5127898;28;20039;-74
2021/11/10 05:05:35;;;;;;;48.05;22.75;;;;;;;3.86;67.16;101466.84;5126946;28;20047;-73
2021/11/10 05:08:02;;;;;;;44.55;24.50;;;;;;;3.80;66.83;101462.63;5128680;28;20047;-71
2021/11/10 05:10:29;;;;;;;50.15;24.50;;;;;;;3.78;67.38;101461.81;5127299;28;20047;-72
2021/11/10 05:12:55;;;;;;;50.67;24.10;;;;;;;3.74;67.35;101459.31;5130121;28;20043;-73
2021/11/10 05:15:24;;;;;;;44.30;22.92;;;;;;;3.75;67.39;101454.03;5127767;28;20043;-74
2021/11/10 05:17:51;;;;;;;45.25;24.25;;;;;;;3.71;67.28;101452.41;5127511;28;20047;-71
2021/11/10 05:20:18;;;;;;;45.42;24.55;;;;;;;3.68;67.35;101459.47;5130146;28;20043;-69
2021/11/10 05:22:45;;;;;;;44.85;23.98;;;;;;;3.68;67.24;101459.47;5127902;28;20043;-71
2021/11/10 05:25:12;;;;;;;44.28;22.98;;;;;;;3.67;67.27;101465.56;5129231;27;20053;-73
2021/11/10 05:27:40;;;;;;;48.33;24.52;;;;;;;3.65;67.36;101465.59;5134248;27;20046;-70
2021/11/10 05:30:08;;;;;;;54.00;25.67;;;;;;;3.67;67.37;101460.34;5137156;27;20050;-71
2021/11/10 05:32:37;;;;;;;54.15;25.40;;;;;;;3.68;67.27;101468.16;5133570;27;20051;-72
2021/11/10 05:35:06;;;;;;;55.42;24.92;;;;;;;3.66;67.30;101469.94;5130297;27;20059;-73
2021/11/10 05:37:33;;;;;;;52.20;24.58;;;;;;;3.71;67.17;101477.66;5134945;27;20147;-74
2021/11/10 05:40:00;;;;;;;51.83;27.38;;;;;;;3.72;66.95;101482.84;5137193;27;20426;-73
2021/11/10 05:42:27;;;;;;;49.20;25.50;;;;;;;3.75;67.17;101489.78;5133945;27;20051;-74
2021/11/10 05:44:56;;;;;;;51.42;24.80;;;;;;;3.77;67.38;101490.59;5130555;27;20051;-73
2021/11/10 05:47:23;;;;;;;62.53;26.58;;;;;;;3.79;67.34;101486.19;5126559;27;20064;-72
2021/11/10 05:49:51;;;;;;;48.55;22.67;;;;;;;3.81;67.25;101487.84;5119465;27;20112;-71
2021/11/10 05:52:18;;;;;;;54.72;25.45;;;;;;;3.83;67.32;101495.66;5125009;27;20047;-72
2021/11/10 05:54:46;;;;;;;57.33;26.55;;;;;;;3.84;67.28;101494.78;5130889;27;20123;-74
2021/11/10 05:57:14;;;;;;;59.60;25.55;;;;;;;3.88;67.26;101492.94;5130411;27;20072;-72
2021/11/10 05:59:41;;;;;;;50.05;27.40;;;;;;;3.89;67.25;101487.69;5128984;27;20086;-70
2021/11/10 06:02:08;;;;;;;47.88;24.92;;;;;;;3.90;67.32;101483.31;5131034;27;20043;-72
2021/11/10 06:04:35;;;;;;;55.85;25.23;;;;;;;3.93;67.25;101484.09;5132362;27;20043;-72
2021/11/10 06:07:05;;;;;;;52.65;24.63;;;;;;;3.95;67.35;101482.28;5134548;27;20050;-71
2021/11/10 06:09:35;;;;;;;52.83;25.65;;;;;;;3.95;67.19;101487.50;5136923;27;20069;-75
2021/11/10 06:12:02;;;;;;;49.40;24.63;;;;;;;3.95;67.18;101484.91;5135885;27;20055;-74
2021/11/10 06:14:30;;;;;;;55.30;26.63;;;;;;;3.96;67.24;101486.63;5134150;27;20047;-79
2021/11/10 06:16:57;;;;;;;64.60;27.63;;;;;;;4.00;67.18;101488.25;5135962;27;20131;-77
2021/11/10 06:19:27;;;;;;;63.25;27.25;;;;;;;4.04;67.32;101490.81;5139620;27;20062;-77
2021/11/10 06:21:54;;;;;;;54.35;27.33;;;;;;;4.04;67.12;101490.81;5125621;27;20046;-77
2021/11/10 06:24:24;;;;;;;62.80;26.95;;;;;;;4.09;67.31;101499.38;5122708;27;20047;-77
2021/11/10 06:26:51;;;;;;;66.20;26.80;;;;;;;4.11;67.25;101503.69;5136183;27;20047;-79
2021/11/10 06:29:21;;;;;;;55.00;28.77;;;;;;;4.15;67.16;101496.63;5136130;27;20050;-76
2021/11/10 06:31:48;;;;;;;69.45;29.05;;;;;;;4.19;67.14;101508.69;5117759;27;20047;-77
2021/11/10 06:34:16;;;;;;;63.83;29.65;;;;;;;4.21;67.17;101501.66;5137879;27;20063;-76
2021/11/10 06:36:43;;;;;;;58.17;28.52;;;;;;;4.24;67.04;101499.00;5144308;27;20061;-76
2021/11/10 06:39:12;;;;;;;65.32;28.10;;;;;;;4.26;66.98;101497.19;5116477;27;20043;-75
2021/11/10 06:41:41;;;;;;;61.67;28.00;;;;;;;4.28;67.06;101505.84;5141587;27;20202;-76
2021/11/10 06:44:08;;;;;;;65.05;30.80;;;;;;;4.29;67.14;101499.72;5129670;28;20252;-73
2021/11/10 06:46:35;;;;;;;68.30;29.45;;;;;;;4.30;67.09;101493.59;5131017;28;20050;-75
2021/11/10 06:49:04;;;;;;;60.05;29.05;;;;;;;4.31;66.89;101495.31;5128986;28;20035;-75
2021/11/10 06:51:32;;;;;;;73.15;32.03;;;;;;;4.34;67.00;101495.25;5128774;28;20132;-75
2021/11/10 06:54:01;;;;;;;66.60;30.17;;;;;;;4.37;66.93;101508.22;5122216;28;20044;-72
2021/11/10 06:56:28;;;;;;;62.30;29.00;;;;;;;4.42;66.91;101509.88;5110083;28;20115;-72
2021/11/10 06:58:57;;;;;;;59.15;28.08;;;;;;;4.48;66.90;101517.53;5109469;28;20167;-74
2021/11/10 07:01:26;;;;;;;62.78;29.88;;;;;;;4.50;66.86;101520.97;5116172;28;20111;-75
2021/11/10 07:03:54;;;;;;;66.72;28.30;;;;;;;4.54;66.73;101515.63;5114078;28;20078;-78
2021/11/10 07:06:22;;;;;;;57.15;27.98;;;;;;;4.57;66.75;101517.28;5113282;28;20046;-73
2021/11/10 07:08:49;;;;;;;53.15;30.67;;;;;;;4.61;66.69;101518.94;5112666;28;20050;-74
2021/11/10 07:11:16;;;;;;;57.92;26.10;;;;;;;4.64;66.58;101513.59;5112975;28;20051;-73
2021/11/10 07:13:44;;;;;;;64.40;28.20;;;;;;;4.68;66.64;101512.63;5106711;28;20721;-73
2021/11/10 07:16:12;;;;;;;62.30;27.23;;;;;;;4.75;66.68;101508.94;5107288;28;20156;-72
2021/11/10 07:18:39;;;;;;;49.35;26.10;;;;;;;4.79;66.68;101504.50;5114513;28;20079;-73
2021/11/10 07:21:07;;;;;;;52.35;25.52;;;;;;;4.82;66.55;101503.53;5114784;28;20124;-74
2021/11/10 07:23:34;;;;;;;52.33;26.45;;;;;;;4.90;66.47;101507.66;5107437;28;20108;-74
2021/11/10 07:26:01;;;;;;;54.75;25.13;;;;;;;4.96;66.41;101496.13;5110725;28;20142;-75
2021/11/10 07:28:28;;;;;;;58.80;25.02;;;;;;;4.99;66.51;101501.28;5107937;28;20050;-75
2021/11/10 07:30:57;;;;;;;52.15;24.70;;;;;;;5.10;66.33;101495.75;5107721;28;20046;-78
2021/11/10 07:33:25;;;;;;;42.70;20.88;;;;;;;5.14;66.26;101498.19;5110182;28;20051;-75
2021/11/10 07:35:53;;;;;;;43.92;23.00;;;;;;;5.22;66.25;101495.38;5110735;28;20052;-77
2021/11/10 07:38:24;;;;;;;41.95;22.42;;;;;;;5.29;66.15;101502.13;5113039;28;20139;-75
2021/11/10 07:40:51;;;;;;;44.28;21.52;;;;;;;5.36;65.93;101502.78;5109205;28;20059;-72
2021/11/10 07:43:19;;;;;;;50.40;23.98;;;;;;;5.41;66.05;101500.91;5108227;28;20681;-73
2021/11/10 07:45:52;;;;;;;43.55;22.05;;;;;;;5.50;66.05;101505.84;5112703;28;20040;-75
2021/11/10 07:48:19;;;;;;;41.38;20.58;;;;;;;5.66;65.81;101497.50;5115110;28;20043;-76
2021/11/10 07:50:48;;;;;;;44.58;24.63;;;;;;;5.71;65.60;101504.31;5112710;28;20601;-72
2021/11/10 07:53:16;;;;;;;45.28;20.35;;;;;;;5.77;65.60;101494.53;5116321;28;20057;-79
2021/11/10 07:55:43;;;;;;;37.88;16.75;;;;;;;5.74;65.66;101498.09;5119148;28;20054;-79
2021/11/10 07:58:10;;;;;;;40.72;20.65;;;;;;;5.69;65.82;101492.16;5118839;28;20059;-76
2021/11/10 08:00:39;;;;;;;38.60;18.30;;;;;;;5.67;66.04;101486.97;5116621;28;20069;-74
2021/11/10 08:03:08;;;;;;;39.13;19.67;;;;;;;5.77;65.91;101484.06;5119382;28;20072;-75
2021/11/10 08:05:35;;;;;;;39.67;20.13;;;;;;;5.86;65.78;101484.59;5111170;28;20119;-74
2021/11/10 08:08:04;;;;;;;36.88;18.98;;;;;;;5.95;65.63;101480.81;5107621;28;20643;-74
2021/11/10 08:10:31;;;;;;;39.63;19.83;;;;;;;6.01;65.67;101479.78;5113218;28;20050;-72
2021/11/10 08:12:58;;;;;;;34.80;17.98;;;;;;;6.01;65.67;101474.53;5110277;28;20044;-74
2021/11/10 08:15:25;;;;;;;39.38;20.92;;;;;;;6.09;65.67;101472.53;5109786;28;20050;-75
2021/11/10 08:17:52;;;;;;;34.00;18.95;;;;;;;6.20;65.55;101480.88;5116873;28;20036;-77
2021/11/10 08:20:19;;;;;;;40.45;21.23;;;;;;;6.31;65.47;101473.47;5113232;28;20047;-75
2021/11/10 08:22:48;;;;;;;38.83;21.38;;;;;;;6.39;65.53;101481.09;5105437;28;20058;-77
2021/11/10 08:25:18;;;;;;;39.08;19.77;;;;;;;6.51;65.46;101474.53;5108399;28;20054;-77
2021/11/10 08:27:46;;;;;;;39.25;20.88;;;;;;;6.58;65.31;101477.81;5106811;28;20075;-75
2021/11/10 08:30:16;;;;;;;41.65;19.45;;;;;;;6.68;65.42;101471.28;5113573;27;20058;-75
2021/11/10 08:32:45;;;;;;;28.13;17.13;;;;;;;6.70;65.61;101475.59;5127616;27;20054;-74
2021/11/10 08:35:12;;;;;;;36.63;21.45;;;;;;;6.76;65.56;101460.53;5133949;27;20071;-76
2021/11/10 08:37:40;;;;;;;37.88;18.88;;;;;;;6.86;65.51;101468.00;5129140;27;20054;-76
2021/11/10 08:40:09;;;;;;;34.83;19.00;;;;;;;6.98;65.55;101469.28;5129567;27;20055;-72
2021/11/10 08:42:38;;;;;;;36.25;19.98;;;;;;;7.11;65.55;101466.22;5125739;27;20130;-77
2021/11/10 08:45:08;;;;;;;34.88;18.38;;;;;;;7.29;65.42;101452.34;5125463;27;20047;-75
2021/11/10 08:47:36;;;;;;;31.33;17.70;;;;;;;7.47;65.29;101459.50;5126511;27;20301;-73
2021/11/10 08:50:07;;;;;;;30.25;15.13;;;;;;;7.66;65.11;101456.13;5135069;27;20044;-73
2021/11/10 08:52:35;;;;;;;30.98;21.58;;;;;;;7.79;64.95;101443.31;5131268;27;20051;-78
2021/11/10 08:55:02;;;;;;;30.90;19.45;;;;;;;8.20;64.65;101445.97;5125624;27;20599;-72
2021/11/10 08:57:29;;;;;;;30.80;17.85;;;;;;;8.63;64.22;101438.00;5127666;28;20057;-77
2021/11/10 08:59:58;;;;;;;29.73;17.25;;;;;;;8.98;63.79;101438.97;5126667;27;20103;-74
2021/11/10 09:02:25;;;;;;;28.73;15.85;;;;;;;9.18;63.47;101441.53;5127176;28;20047;-74
2021/11/10 09:04:52;;;;;;;31.05;16.50;;;;;;;9.31;63.59;101444.44;5127042;28;20499;-72
2021/11/10 09:07:19;;;;;;;32.85;18.40;;;;;;;9.50;63.05;101438.28;5129367;28;20333;-78
2021/11/10 09:09:46;;;;;;;29.45;18.10;;;;;;;9.62;62.94;101435.03;5140482;28;20048;-74
2021/11/10 09:12:13;;;;;;;32.40;19.80;;;;;;;9.86;62.54;101434.72;5128354;28;20050;-80
2021/11/10 09:14:40;;;;;;;26.60;18.80;;;;;;;10.09;62.10;101428.28;5125500;28;20053;-73
2021/11/10 09:17:10;;;;;;;26.52;16.20;;;;;;;10.33;61.69;101428.81;5127279;28;20199;-71
2021/11/10 09:19:37;;;;;;;27.45;15.38;;;;;;;10.49;61.39;101432.34;5126425;28;20050;-75
2021/11/10 09:22:04;;;;;;;28.08;17.42;;;;;;;10.68;60.96;101436.66;5125066;28;20047;-75
2021/11/10 09:24:31;;;;;;;22.83;15.35;;;;;;;10.93;60.53;101420.31;5124865;28;20043;-75
2021/11/10 09:26:58;;;;;;;26.58;17.33;;;;;;;11.11;59.82;101426.38;5127237;28;20043;-78
2021/11/10 09:29:25;;;;;;;23.27;18.05;;;;;;;11.27;59.41;101424.56;5121552;28;20097;-73
2021/11/10 09:31:53;;;;;;;26.85;18.10;;;;;;;11.46;58.80;101410.28;5128682;28;20039;-78
2021/11/10 09:34:23;;;;;;;27.25;15.52;;;;;;;11.56;58.51;101403.53;5132638;28;20047;-72
2021/11/10 09:36:50;;;;;;;28.83;15.95;;;;;;;11.62;58.17;101400.50;5131566;28;20058;-81
2021/11/10 09:39:17;;;;;;;25.27;17.13;;;;;;;11.61;57.98;101390.00;5128545;28;20043;-74
2021/11/10 09:41:47;;;;;;;24.70;15.38;;;;;;;11.66;58.07;101396.72;5127277;27;20180;-73
2021/11/10 09:44:14;;;;;;;24.80;16.25;;;;;;;11.74;57.50;101379.53;5128338;28;20047;-72
2021/11/10 09:46:42;;;;;;;23.60;14.10;;;;;;;11.86;57.20;101377.00;5127864;28;20047;-80
2021/11/10 09:49:10;;;;;;;24.50;14.23;;;;;;;12.00;56.98;101383.31;5132873;28;20130;-77
2021/11/10 09:51:39;;;;;;;23.85;15.20;;;;;;;12.22;56.24;101372.25;5126535;28;20049;-75
2021/11/10 09:54:09;;;;;;;26.13;15.98;;;;;;;12.38;56.23;101370.38;5125079;28;20082;-74
2021/11/10 09:56:37;;;;;;;23.50;15.25;;;;;;;12.51;55.85;101377.56;5124408;28;20104;-80
2021/11/10 09:59:05;;;;;;;21.25;15.70;;;;;;;12.62;55.70;101373.28;5129585;28;20157;-78
2021/11/10 10:01:33;;;;;;;24.52;15.13;;;;;;;12.70;55.22;101375.44;5132071;28;20169;-73
2021/11/10 10:04:00;;;;;;;23.02;14.15;;;;;;;12.78;55.28;101375.81;5122524;28;20045;-74
2021/11/10 10:06:29;;;;;;;21.95;15.30;;;;;;;12.97;54.67;101377.28;5087598;28;20051;-78
2021/11/10 10:08:59;;;;;;;24.45;16.27;;;;;;;13.12;54.23;101380.75;5123468;28;20043;-76
2021/11/10 10:11:26;;;;;;;20.58;13.25;;;;;;;13.19;54.31;101368.78;5124645;27;20044;-74
2021/11/10 10:13:54;;;;;;;20.65;13.13;;;;;;;13.32;54.03;101372.34;5127442;27;20049;-76
2021/11/10 10:16:22;;;;;;;21.45;14.70;;;;;;;13.47;53.71;101359.88;5126520;27;20047;-75
2021/11/10 10:18:50;;;;;;;18.90;12.10;;;;;;;13.55;53.73;101368.16;5126428;27;20569;-76
2021/11/10 10:21:19;;;;;;;19.27;12.68;;;;;;;13.55;53.72;101354.88;5127262;27;20043;-74
2021/11/10 10:23:49;;;;;;;20.58;13.32;;;;;;;13.60;53.61;101354.59;5126959;27;20290;-71
2021/11/10 10:26:19;;;;;;;17.42;12.07;;;;;;;13.70;53.44;101352.16;5126164;27;20050;-76
2021/11/10 10:28:50;;;;;;;19.48;12.25;;;;;;;13.82;53.24;101348.66;5126304;27;20075;-77
2021/11/10 10:31:20;;;;;;;20.38;13.68;;;;;;;13.85;52.91;101345.78;5124192;27;20049;-76
2021/11/10 10:33:49;;;;;;;21.10;14.07;;;;;;;13.77;53.08;101341.03;5125153;27;20055;-77
2021/11/10 10:36:18;;;;;;;20.70;13.27;;;;;;;13.84;52.87;101351.22;5127010;27;20104;-74
2021/11/10 10:38:48;;;;;;;19.48;13.32;;;;;;;13.92;52.69;101341.75;5125647;27;20065;-75
2021/11/10 10:41:20;;;;;;;21.50;14.70;;;;;;;14.05;52.46;101340.91;5126314;27;20043;-75
2021/11/10 10:43:49;;;;;;;20.33;13.30;;;;;;;14.14;52.23;101333.13;5127822;27;20566;-77
2021/11/10 10:46:17;;;;;;;17.98;11.75;;;;;;;14.23;51.90;101331.66;5132754;27;20054;-74
2021/11/10 10:48:45;;;;;;;20.80;12.50;;;;;;;14.30;51.57;101330.25;5128317;27;20057;-78
2021/11/10 10:51:14;;;;;;;19.02;11.27;;;;;;;14.34;51.03;101337.03;5128168;27;20047;-76
2021/11/10 10:53:43;;;;;;;17.90;10.93;;;;;;;14.42;50.71;101331.19;5125900;27;20145;-74
2021/11/10 10:56:24;;;;;;;16.55;10.85;;;;;;;14.47;50.79;101328.19;5126151;27;20043;-74
2021/11/10 10:58:53;;;;;;;18.02;11.80;;;;;;;14.48;50.43;101324.59;5129398;27;20049;-75
2021/11/10 11:01:27;;;;;;;14.38;9.38;;;;;;;14.50;50.24;101334.13;5129427;27;20047;-77
2021/11/10 11:04:00;;;;;;;17.33;10.48;;;;;;;14.35;50.62;101332.59;5127157;27;20051;-78
2021/11/10 11:06:29;;;;;;;15.70;10.50;;;;;;;14.25;50.56;101327.06;5107958;27;20050;-78
2021/11/10 11:08:59;;;;;;;17.70;10.32;;;;;;;14.20;50.65;101309.75;5126320;27;20039;-75
2021/11/10 11:14:26;;;;;;;15.98;10.73;;;;;;;14.06;50.61;101303.63;5124941;27;20107;-77
2021/11/10 11:17:05;;;;;;;14.88;9.45;;;;;;;14.04;50.27;101309.97;5127831;27;20424;-74
2021/11/10 11:19:37;;;;;;;16.50;9.15;;;;;;;14.00;49.76;101297.88;5126571;27;20364;-74
2021/11/10 11:22:06;;;;;;;13.77;10.13;;;;;;;13.90;49.52;101295.00;5124233;27;20187;-75
2021/11/10 11:24:44;;;;;;;14.23;7.90;;;;;;;13.88;49.54;101289.81;5125672;27;20043;-76